This is the latest recevied weather packets stored in our database for station/object SQ9NFI-4. If no packets are shown the sender has not sent any weather packets the latest 10 day(s).
| Time | Temp. | Humidity | Pressure | Rain* | Wind** | Luminosity | Snow |
|---|---|---|---|---|---|---|---|
| 1777456216 | 10° C | 32% | 1026.1 hPa | 0 mm | - | 813 W/m² | - |
| 1777455916 | 10° C | 31% | 1026.1 hPa | 0 mm | - | 488 W/m² | - |
| 1777455616 | 9.44° C | 32% | 1026.1 hPa | 0 mm | - | 191 W/m² | - |
| 1777455316 | 10.56° C | 35% | 1026.1 hPa | 0 mm | - | 791 W/m² | - |
| 1777455016 | 9.44° C | 32% | 1026.1 hPa | 0 mm | - | 188 W/m² | - |
| 1777454716 | 10° C | 30% | 1026.1 hPa | 0 mm | - | 705 W/m² | - |
| 1777454416 | 10° C | 31% | 1026.4 hPa | 0 mm | - | 697 W/m² | - |
| 1777454116 | 8.89° C | 32% | 1026.4 hPa | 0 mm | - | 762 W/m² | - |
| 1777453816 | 8.33° C | 35% | 1026.4 hPa | 0 mm | - | 774 W/m² | - |
| 1777453516 | 7.78° C | 35% | 1026.4 hPa | 0 mm | - | 220 W/m² | - |
| 1777453216 | 8.33° C | 35% | 1026.4 hPa | 0 mm | - | 289 W/m² | - |
| 1777452916 | 8.33° C | 33% | 1026.4 hPa | 0 mm | - | 245 W/m² | - |
| 1777452616 | 9.44° C | 34% | 1026.4 hPa | 0 mm | - | 280 W/m² | - |
| 1777452316 | 9.44° C | 35% | 1026.1 hPa | 0 mm | - | 702 W/m² | - |
| 1777452016 | 9.44° C | 34% | 1026.1 hPa | 0 mm | - | 623 W/m² | - |
| 1777451715 | 9.44° C | 34% | 1026.1 hPa | 0 mm | - | 614 W/m² | - |
| 1777451416 | 9.44° C | 34% | 1026.1 hPa | 0 mm | - | 600 W/m² | - |
| 1777451115 | 9.44° C | 35% | 1026.1 hPa | 0 mm | - | 580 W/m² | - |
| 1777450815 | 8.89° C | 34% | 1026.1 hPa | 0 mm | - | 576 W/m² | - |
| 1777450515 | 9.44° C | 35% | 1026.1 hPa | 0 mm | - | 569 W/m² | - |
| 1777450216 | 9.44° C | 35% | 1026.1 hPa | 0 mm | - | 559 W/m² | - |
| 1777449915 | 8.89° C | 34% | 1026.1 hPa | 0 mm | - | 546 W/m² | - |
| 1777449615 | 8.33° C | 34% | 1025.7 hPa | 0 mm | - | 543 W/m² | - |
| 1777449315 | 8.89° C | 36% | 1025.7 hPa | 0 mm | - | 532 W/m² | - |
| 1777449016 | 8.89° C | 37% | 1025.7 hPa | 0 mm | - | 519 W/m² | - |
* Rain latest hour (hover to see other rain measurements)
** Current wind speed in m/s (hover to see current wind gust speed)